Time;durP1;ratioP1;P1;durP2;ratioP2;P2;SDS_P1;SDS_P2;PMS_P1;PMS_P2;Temp;Humidity;BMP_temperature;BMP_pressure;BME280_temperature;BME280_humidity;BME280_pressure;Samples;Min_cycle;Max_cycle;Signal;HPM_P1;HPM_P2
2023/06/03 00:01:40;;;;;;;8.85;6.47;;;10.40;99.90;;;;;;20908222;28;20095;-50
2023/06/03 00:11:42;;;;;;;6.68;5.68;;;10.30;99.90;;;;;;20917995;28;20037;-43
2023/06/03 00:21:45;;;;;;;8.30;6.95;;;10.30;99.90;;;;;;20914704;28;20040;-54
2023/06/03 00:31:47;;;;;;;11.05;8.27;;;10.30;99.90;;;;;;20917483;28;20048;-49
2023/06/03 00:41:49;;;;;;;9.68;7.22;;;10.30;99.90;;;;;;20912313;28;20448;-51
2023/06/03 00:51:51;;;;;;;7.63;5.70;;;10.30;99.90;;;;;;20915202;28;20482;-44
2023/06/03 01:01:53;;;;;;;7.15;5.88;;;10.30;99.90;;;;;;20914911;28;20394;-44
2023/06/03 01:12:10;;;;;;;6.45;5.20;;;10.30;99.90;;;;;;20909902;28;20493;-46
2023/06/03 01:22:13;;;;;;;5.35;4.38;;;10.30;99.90;;;;;;20906183;28;20099;-52
2023/06/03 01:32:16;;;;;;;5.40;4.35;;;10.40;99.90;;;;;;20908776;28;20363;-44
2023/06/03 01:42:18;;;;;;;8.32;5.55;;;10.50;99.90;;;;;;20913622;28;20053;-45
2023/06/03 01:52:20;;;;;;;6.07;5.15;;;10.70;99.90;;;;;;20910601;28;20037;-49
2023/06/03 02:02:22;;;;;;;7.15;4.70;;;10.90;99.90;;;;;;20909620;28;20086;-46
2023/06/03 02:12:24;;;;;;;5.93;5.13;;;10.90;99.90;;;;;;20904157;28;20029;-45
2023/06/03 02:22:26;;;;;;;6.50;4.85;;;10.80;99.90;;;;;;20908204;28;20036;-46
2023/06/03 02:32:28;;;;;;;7.93;5.15;;;10.60;99.90;;;;;;20904892;28;20037;-53
2023/06/03 02:42:30;;;;;;;7.57;6.22;;;10.50;99.90;;;;;;20906351;28;20049;-45
2023/06/03 02:52:33;;;;;;;6.72;5.63;;;10.50;99.90;;;;;;20903007;28;20113;-46
2023/06/03 03:02:37;;;;;;;8.50;6.45;;;10.50;99.90;;;;;;20900523;28;20033;-46
2023/06/03 03:12:39;;;;;;;10.70;7.38;;;10.50;99.90;;;;;;20902976;28;20104;-44
2023/06/03 03:22:46;;;;;;;11.20;8.63;;;10.50;99.90;;;;;;20897404;28;20107;-51
2023/06/03 03:32:52;;;;;;;12.80;9.47;;;10.50;99.90;;;;;;20901350;28;20029;-44
2023/06/03 03:42:56;;;;;;;14.20;9.65;;;10.50;99.90;;;;;;20905167;28;20037;-45
2023/06/03 03:53:04;;;;;;;12.10;9.05;;;10.50;99.90;;;;;;20898626;28;20037;-45
2023/06/03 04:03:09;;;;;;;11.65;8.63;;;10.50;99.90;;;;;;20905020;28;20025;-48
2023/06/03 04:13:12;;;;;;;10.48;6.90;;;10.60;99.90;;;;;;20902497;28;20056;-52
2023/06/03 04:23:17;;;;;;;8.70;6.15;;;10.70;99.90;;;;;;20898358;28;20032;-44
2023/06/03 04:33:19;;;;;;;6.30;3.10;;;10.70;99.90;;;;;;20903617;28;20084;-52
2023/06/03 04:43:22;;;;;;;5.65;3.85;;;10.70;99.90;;;;;;20901221;28;20414;-46
2023/06/03 04:53:26;;;;;;;4.47;3.30;;;10.70;99.90;;;;;;20910725;28;20040;-52
2023/06/03 05:03:29;;;;;;;3.10;2.60;;;10.80;99.90;;;;;;20913071;28;20443;-52
2023/06/03 05:13:32;;;;;;;1.95;1.55;;;11.00;99.90;;;;;;20910389;28;20114;-41
2023/06/03 05:23:34;;;;;;;2.00;1.50;;;11.00;99.90;;;;;;20910298;28;20041;-48
2023/06/03 05:33:37;;;;;;;2.42;2.08;;;10.90;99.90;;;;;;20910929;28;20398;-41
2023/06/03 05:43:47;;;;;;;3.00;2.03;;;11.00;99.90;;;;;;20903855;28;20131;-49
2023/06/03 05:53:50;;;;;;;2.05;1.65;;;11.00;99.90;;;;;;20907482;28;20279;-42
2023/06/03 06:03:56;;;;;;;2.65;1.83;;;11.00;99.90;;;;;;20906387;28;20036;-44
2023/06/03 06:13:59;;;;;;;2.78;1.55;;;11.30;99.90;;;;;;20902726;28;20355;-50
2023/06/03 06:24:01;;;;;;;3.42;1.35;;;11.30;99.90;;;;;;20906052;28;20049;-49
2023/06/03 06:34:05;;;;;;;1.63;1.30;;;11.30;99.90;;;;;;20901760;28;20486;-52
2023/06/03 06:44:10;;;;;;;2.25;1.30;;;11.40;99.90;;;;;;20901996;28;20041;-42
2023/06/03 06:54:14;;;;;;;1.65;1.10;;;11.60;99.90;;;;;;20906707;28;20041;-47
2023/06/03 07:04:17;;;;;;;1.98;1.33;;;11.60;99.90;;;;;;20900493;28;20036;-47
2023/06/03 07:14:29;;;;;;;3.13;2.45;;;11.50;99.90;;;;;;20905051;28;20037;-52
2023/06/03 07:24:36;;;;;;;5.63;3.30;;;11.40;99.90;;;;;;20900686;28;20053;-43
2023/06/03 07:34:40;;;;;;;5.68;2.90;;;11.40;99.90;;;;;;20899491;28;20506;-52
2023/06/03 07:44:47;;;;;;;6.15;3.00;;;11.40;99.90;;;;;;20897697;28;20040;-47
2023/06/03 07:54:49;;;;;;;4.03;3.45;;;11.40;99.90;;;;;;20899239;28;20021;-51
2023/06/03 08:04:55;;;;;;;3.60;2.83;;;11.60;99.90;;;;;;20899127;28;20425;-43
2023/06/03 08:14:57;;;;;;;4.22;3.05;;;11.80;99.90;;;;;;20902569;28;20036;-48
2023/06/03 08:24:59;;;;;;;2.67;2.25;;;12.20;99.90;;;;;;20910926;28;20033;-50
2023/06/03 08:35:01;;;;;;;3.33;2.30;;;12.50;99.90;;;;;;20914466;28;20040;-46
2023/06/03 08:45:04;;;;;;;2.03;1.48;;;13.20;99.90;;;;;;20913232;28;20543;-50
2023/06/03 08:55:09;;;;;;;1.77;1.30;;;14.00;99.90;;;;;;20912365;28;20025;-51
2023/06/03 09:05:11;;;;;;;1.83;1.20;;;15.10;99.90;;;;;;20911847;28;20074;-55
2023/06/03 09:15:16;;;;;;;1.30;1.20;;;15.90;99.90;;;;;;20915735;28;20110;-50
2023/06/03 09:25:18;;;;;;;1.90;1.40;;;16.70;99.90;;;;;;20910983;28;20029;-47
2023/06/03 09:35:20;;;;;;;2.03;1.75;;;17.80;99.90;;;;;;20916153;28;20114;-50
2023/06/03 09:45:40;;;;;;;2.25;1.90;;;19.40;99.90;;;;;;20909020;28;20037;-53
2023/06/03 09:55:41;;;;;;;4.20;1.40;;;19.90;99.90;;;;;;20907162;28;20033;-46
2023/06/03 10:05:43;;;;;;;2.33;1.90;;;19.70;99.90;;;;;;20912649;28;20029;-54
2023/06/03 10:15:45;;;;;;;2.95;2.00;;;19.80;99.90;;;;;;20907601;28;20085;-46
2023/06/03 10:25:52;;;;;;;2.90;2.13;;;19.20;99.90;;;;;;20905280;28;20028;-53
2023/06/03 10:36:00;;;;;;;2.47;2.15;;;18.60;99.90;;;;;;20907733;28;20063;-48
2023/06/03 10:46:03;;;;;;;2.20;2.00;;;17.90;99.90;;;;;;20899310;28;20039;-54
2023/06/03 10:56:13;;;;;;;4.00;2.60;;;17.40;99.90;;;;;;20902247;28;20087;-49
2023/06/03 11:06:21;;;;;;;2.75;2.35;;;17.10;99.90;;;;;;20901894;28;20106;-46
2023/06/03 11:16:23;;;;;;;2.53;2.13;;;16.70;99.90;;;;;;20901060;28;20049;-53
2023/06/03 11:26:35;;;;;;;3.13;2.53;;;16.90;99.90;;;;;;20900588;28;20091;-50
2023/06/03 11:36:53;;;;;;;2.92;2.15;;;17.50;99.90;;;;;;20900166;28;20037;-50
2023/06/03 11:46:56;;;;;;;2.20;2.00;;;18.70;99.90;;;;;;20900160;28;20381;-57
2023/06/03 11:56:59;;;;;;;3.08;1.90;;;21.50;99.90;;;;;;20915794;28;20122;-56
2023/06/03 12:07:01;;;;;;;2.50;2.30;;;23.10;99.90;;;;;;20916952;28;20037;-57
2023/06/03 12:17:14;;;;;;;2.72;2.30;;;23.00;99.90;;;;;;20915342;28;20041;-54
2023/06/03 12:27:21;;;;;;;4.55;2.45;;;22.90;97.90;;;;;;20912051;28;20102;-56
2023/06/03 12:37:33;;;;;;;2.97;2.03;;;23.60;98.20;;;;;;20913111;28;20045;-48
2023/06/03 12:47:46;;;;;;;3.80;2.90;;;23.30;94.50;;;;;;20912415;28;20025;-57
2023/06/03 12:57:49;;;;;;;2.50;2.20;;;23.40;95.00;;;;;;20915204;28;20093;-57
2023/06/03 13:07:50;;;;;;;5.90;2.45;;;23.10;99.90;;;;;;20910542;28;20045;-54
2023/06/03 13:17:52;;;;;;;3.50;2.53;;;23.60;97.10;;;;;;20911422;28;20040;-51
2023/06/03 13:27:54;;;;;;;3.17;2.40;;;22.60;96.60;;;;;;20909384;28;20041;-50
2023/06/03 13:37:55;;;;;;;3.00;2.70;;;22.20;97.80;;;;;;20908584;28;20509;-53
2023/06/03 13:47:57;;;;;;;4.65;2.80;;;21.90;96.10;;;;;;20912100;28;20470;-54
2023/06/03 13:57:59;;;;;;;3.13;2.50;;;21.10;98.70;;;;;;20910219;28;20034;-52
2023/06/03 14:08:00;;;;;;;3.05;2.75;;;21.00;99.90;;;;;;20906677;28;20379;-54
2023/06/03 14:18:03;;;;;;;4.13;3.10;;;22.40;99.90;;;;;;20908546;28;20083;-56
2023/06/03 14:28:04;;;;;;;3.95;3.17;;;23.10;98.10;;;;;;20900673;28;20090;-50
2023/06/03 14:38:06;;;;;;;5.28;3.05;;;23.70;97.40;;;;;;20903942;28;20044;-50
2023/06/03 14:48:08;;;;;;;4.75;3.75;;;22.10;99.70;;;;;;20903854;28;20410;-50
2023/06/03 14:58:09;;;;;;;6.00;3.83;;;21.00;99.90;;;;;;20908481;28;20055;-44
2023/06/03 15:08:11;;;;;;;11.48;6.93;;;20.00;99.90;;;;;;20902035;28;20063;-50
2023/06/03 15:18:13;;;;;;;6.15;4.72;;;18.00;99.90;;;;;;20900959;28;20029;-49
2023/06/03 15:28:15;;;;;;;7.80;5.88;;;16.70;99.90;;;;;;20907174;28;20106;-50
2023/06/03 15:38:17;;;;;;;8.15;6.35;;;15.80;99.90;;;;;;20894810;28;20045;-53
2023/06/03 15:48:19;;;;;;;8.25;6.10;;;15.50;99.90;;;;;;20898741;28;20478;-51
2023/06/03 15:58:20;;;;;;;8.25;5.72;;;15.30;99.90;;;;;;20899182;28;20482;-48
2023/06/03 16:08:22;;;;;;;7.13;6.10;;;15.90;99.90;;;;;;20897482;28;20029;-51
2023/06/03 16:18:26;;;;;;;7.10;6.00;;;15.60;99.90;;;;;;20906972;28;20037;-51
2023/06/03 16:28:28;;;;;;;7.10;5.70;;;15.90;99.90;;;;;;20902707;28;20482;-49
2023/06/03 16:38:30;;;;;;;6.60;5.75;;;16.80;99.90;;;;;;20897654;28;20033;-54
2023/06/03 16:48:32;;;;;;;6.50;5.80;;;17.80;99.90;;;;;;20913845;28;20106;-55
2023/06/03 16:58:34;;;;;;;5.07;4.57;;;18.10;99.90;;;;;;20911554;28;20474;-49
2023/06/03 17:08:35;;;;;;;7.43;4.78;;;17.90;99.90;;;;;;20911626;28;20037;-53
2023/06/03 17:18:37;;;;;;;6.32;4.97;;;17.60;99.90;;;;;;20910420;28;20513;-54
2023/06/03 17:28:38;;;;;;;7.88;5.25;;;17.10;99.90;;;;;;20909274;28;20028;-52
2023/06/03 17:38:40;;;;;;;5.85;5.05;;;16.80;99.90;;;;;;20913870;28;20406;-51
2023/06/03 17:48:44;;;;;;;6.03;5.35;;;16.50;99.90;;;;;;20912355;28;20390;-48
2023/06/03 17:58:46;;;;;;;7.03;6.18;;;16.10;99.90;;;;;;20906447;28;20059;-52
2023/06/03 18:08:47;;;;;;;9.32;7.13;;;16.20;99.90;;;;;;20906996;28;20036;-50
2023/06/03 18:18:49;;;;;;;7.63;6.82;;;16.50;99.90;;;;;;20912165;28;20059;-50
2023/06/03 18:28:50;;;;;;;10.32;9.23;;;16.20;99.90;;;;;;20904658;28;20037;-54
2023/06/03 18:38:52;;;;;;;8.52;6.72;;;14.90;99.90;;;;;;20905458;28;20385;-53
2023/06/03 18:48:53;;;;;;;4.50;4.10;;;14.00;99.90;;;;;;20903038;28;20059;-50
2023/06/03 18:58:55;;;;;;;8.07;5.45;;;13.30;99.90;;;;;;20908779;28;20029;-49
2023/06/03 19:08:57;;;;;;;12.57;7.65;;;12.70;99.90;;;;;;20901896;28;20087;-48
2023/06/03 19:18:58;;;;;;;8.43;6.07;;;12.30;99.90;;;;;;20901231;28;20036;-43
2023/06/03 19:29:00;;;;;;;10.80;7.53;;;11.90;99.90;;;;;;20900268;28;20037;-43
2023/06/03 19:39:02;;;;;;;8.25;5.60;;;11.40;99.90;;;;;;20902251;28;20394;-46
2023/06/03 19:49:05;;;;;;;7.13;5.00;;;11.20;99.90;;;;;;20900061;28;20091;-48
2023/06/03 19:59:07;;;;;;;7.47;5.40;;;11.00;99.90;;;;;;20899176;28;20033;-48
2023/06/03 20:09:09;;;;;;;10.73;6.30;;;10.90;99.90;;;;;;20899188;28;20482;-51
2023/06/03 20:19:11;;;;;;;12.82;8.98;;;10.80;99.90;;;;;;20910375;28;20059;-47
2023/06/03 20:29:12;;;;;;;13.57;9.05;;;10.80;99.90;;;;;;20914266;28;20033;-46
2023/06/03 20:39:14;;;;;;;13.05;9.15;;;10.80;99.90;;;;;;20913576;28;20506;-44
2023/06/03 20:49:16;;;;;;;14.57;10.00;;;10.80;99.90;;;;;;20912778;28;20630;-48
2023/06/03 20:59:18;;;;;;;13.48;9.48;;;10.90;99.90;;;;;;20911616;28;20044;-51
2023/06/03 21:09:19;;;;;;;10.73;8.48;;;11.00;99.90;;;;;;20911418;28;20098;-49
2023/06/03 21:19:21;;;;;;;8.98;6.88;;;10.90;99.90;;;;;;20910230;28;20021;-44
2023/06/03 21:29:23;;;;;;;12.95;8.50;;;10.90;99.90;;;;;;20909061;28;20040;-52
2023/06/03 21:39:24;;;;;;;8.70;6.53;;;10.80;99.90;;;;;;20915724;28;20044;-44
2023/06/03 21:49:26;;;;;;;9.13;6.28;;;10.70;99.90;;;;;;20910031;28;20071;-51
2023/06/03 21:59:29;;;;;;;12.63;7.43;;;10.70;99.90;;;;;;20909630;28;20040;-50
2023/06/03 22:09:31;;;;;;;14.27;9.25;;;10.70;99.90;;;;;;20906782;28;20544;-48
2023/06/03 22:19:33;;;;;;;21.35;13.85;;;10.80;99.90;;;;;;20909745;28;20037;-51
2023/06/03 22:29:35;;;;;;;20.48;14.43;;;10.80;99.90;;;;;;20906233;28;20112;-50
2023/06/03 22:39:36;;;;;;;22.08;16.05;;;10.80;99.90;;;;;;20907570;28;20099;-48
2023/06/03 22:49:38;;;;;;;27.45;18.33;;;10.90;99.90;;;;;;20903535;28;20384;-44
2023/06/03 22:59:40;;;;;;;24.65;17.33;;;11.00;99.90;;;;;;20902646;28;20041;-52
2023/06/03 23:09:42;;;;;;;22.30;15.98;;;11.00;99.90;;;;;;20901323;28;20033;-46
2023/06/03 23:19:44;;;;;;;18.42;13.30;;;11.00;99.90;;;;;;20901284;28;20036;-54
2023/06/03 23:29:46;;;;;;;14.13;10.48;;;11.00;99.90;;;;;;20904698;28;20029;-43
2023/06/03 23:39:47;;;;;;;14.48;9.48;;;10.90;99.90;;;;;;20900916;28;20138;-49
2023/06/03 23:49:49;;;;;;;13.63;9.38;;;10.80;99.90;;;;;;20909120;28;20045;-47
2023/06/03 23:59:51;;;;;;;13.35;10.10;;;10.70;99.90;;;;;;20928755;28;20102;-48
